This is the latest recevied weather packets stored in our database for station/object DG5MG. If no packets are shown the sender has not sent any weather packets the latest 10 day(s).
| Time | Temp. | Humidity | Pressure | Rain* | Wind** | Luminosity | Snow |
|---|---|---|---|---|---|---|---|
| 1777996804 | 19.44° C | 66% | 1011.9 hPa | 0 mm | - | 327 W/m² | - |
| 1777996504 | 19.44° C | 66% | 1011.9 hPa | 0 mm | - | 350 W/m² | - |
| 1777995904 | 17.78° C | 70% | 1011.5 hPa | 0 mm | - | 397 W/m² | - |
| 1777995004 | 18.33° C | 69% | 1011.9 hPa | 0 mm | - | 469 W/m² | - |
| 1777992604 | 17.78° C | 68% | 1012.2 hPa | 0 mm | - | 665 W/m² | - |
| 1777989604 | 20.56° C | 53% | 1011.9 hPa | 0 mm | - | 902 W/m² | - |
| 1777988406 | 21.67° C | 47% | 1011.2 hPa | 0 mm | - | 988 W/m² | - |
| 1777986006 | 22.22° C | 44% | 1011.2 hPa | 0 mm | - | 1133 W/m² | - |
| 1777984207 | 23.89° C | 40% | 1011.2 hPa | 0 mm | - | 1214 W/m² | - |
| 1777983306 | 23.33° C | 41% | 1011.9 hPa | 0 mm | - | 1244 W/m² | - |
| 1777981806 | 22.78° C | 42% | 1011.5 hPa | 0 mm | - | 1277 W/m² | - |
| 1777981206 | 23.89° C | 40% | 1011.5 hPa | 0 mm | - | 1283 W/m² | - |
| 1777979406 | 22.78° C | 43% | 1011.9 hPa | 0 mm | - | 1282 W/m² | - |
| 1777978206 | 24.44° C | 40% | 1011.9 hPa | 0 mm | - | 1262 W/m² | - |
| 1777977905 | 24.44° C | 41% | 1012 hPa | 0 mm | - | 1255 W/m² | - |
| 1777975206 | 22.22° C | 43% | 1012.5 hPa | 0 mm | - | 1155 W/m² | - |
| 1777972206 | 22.22° C | 44% | 1013.2 hPa | 0 mm | - | 975 W/m² | - |
| 1777971006 | 21.67° C | 50% | 1013.5 hPa | 0 mm | - | 888 W/m² | - |
| 1777970106 | 20.56° C | 54% | 1013.5 hPa | 0 mm | - | 819 W/m² | - |
| 1777969506 | 20° C | 56% | 1013.5 hPa | 0 mm | - | 772 W/m² | - |
| 1777967706 | 18.89° C | 65% | 1013.9 hPa | 0 mm | - | 626 W/m² | - |
| 1777967106 | 18.33° C | 67% | 1013.9 hPa | 0 mm | - | 576 W/m² | - |
| 1777959005 | 12.78° C | 82% | 1014.6 hPa | 0 mm | - | 0 W/m² | - |
| 1777958106 | 12.22° C | 84% | 1014.5 hPa | 0 mm | - | 0 W/m² | - |
| 1777954506 | 8.89° C | 95% | 1014.6 hPa | 0 mm | - | 0 W/m² | - |
* Rain latest hour (hover to see other rain measurements)
** Current wind speed in m/s (hover to see current wind gust speed)